Terminal Aerodrome Forecast
Issued by NWS Quad Cities IA IL

Home | Current Version | Previous Version | Text Only | Print | Product List | Glossary On
Versions: 1 2 3 4 5 6 7 8 9 10 11 12 13 14 15 16 17 18 19 20 21 22
000
FTUS43 KDVN 201100
TAFDBQ
TAF
KDBQ 201135Z 2012/2112 VRB02KT P6SM SCT250
      TEMPO 2012/2013 5SM BR
     FM201500 19007KT P6SM SCT050
     FM210200 15003KT P6SM VCTS FEW050CB BKN120=

USA.gov is the U.S. government's official web portal to all federal, state and local government web resources and services.